Castana, Iowa
Current Conditions -  °F | °C
As of 6:54 AM on Friday 19 Dec 2014 (Local Time) from KTQE Reporting Station
Haze Haze  
Wind Chill: 26°   Ceiling: 900
Heat Index: 31°   Visibility: 5mi
Dew Point: 29°   Wind: 5mph
Humidity: 92%   Direction: 150°SSE
Pressure: 30.21"   Gusts: NA
Location:  42.07°N, 95.91°W
Report Text: KTQE 191254Z AUTO 15004KT 5SM BR OVC009 M01/M02 A3021 RMK AO2 SLP238 T10061017
Loading
Personal Weather Stations






























Interactive Weather Map New forecast layout! Learn more

10-Day Weather Forecast

Advertisements
Track Severe Weather on mobile